sensor_id;sensor_type;location;lat;lon;timestamp;pressure;altitude;pressure_sealevel;temperature;humidity
23261;BME280;11799;47.740;-3.390;2023-01-31T00:01:19;103010.56;;;7.91;94.66
23261;BME280;11799;47.740;-3.390;2023-01-31T00:03:45;103009.69;;;7.90;94.27
23261;BME280;11799;47.740;-3.390;2023-01-31T00:08:38;103014.91;;;7.92;94.16
23261;BME280;11799;47.740;-3.390;2023-01-31T00:11:03;103013.16;;;7.92;94.05
23261;BME280;11799;47.740;-3.390;2023-01-31T00:13:29;103014.09;;;7.90;94.00
23261;BME280;11799;47.740;-3.390;2023-01-31T00:15:55;103014.06;;;7.91;93.91
23261;BME280;11799;47.740;-3.390;2023-01-31T00:18:21;103007.97;;;7.89;94.75
23261;BME280;11799;47.740;-3.390;2023-01-31T00:20:47;103012.38;;;7.89;94.44
23261;BME280;11799;47.740;-3.390;2023-01-31T00:23:12;103024.63;;;7.90;94.12
23261;BME280;11799;47.740;-3.390;2023-01-31T00:25:38;103030.84;;;7.87;93.51
23261;BME280;11799;47.740;-3.390;2023-01-31T00:28:04;103032.56;;;7.88;93.60
23261;BME280;11799;47.740;-3.390;2023-01-31T00:30:30;103025.59;;;7.87;93.61
23261;BME280;11799;47.740;-3.390;2023-01-31T00:32:55;103017.66;;;7.89;93.82
23261;BME280;11799;47.740;-3.390;2023-01-31T00:35:23;103020.31;;;7.87;93.47
23261;BME280;11799;47.740;-3.390;2023-01-31T00:37:48;103022.94;;;7.87;93.96
23261;BME280;11799;47.740;-3.390;2023-01-31T00:40:14;103023.00;;;7.86;94.30
23261;BME280;11799;47.740;-3.390;2023-01-31T00:42:40;103023.16;;;7.81;94.16
23261;BME280;11799;47.740;-3.390;2023-01-31T00:45:06;103019.66;;;7.81;93.51
23261;BME280;11799;47.740;-3.390;2023-01-31T00:47:31;103027.53;;;7.81;93.20
23261;BME280;11799;47.740;-3.390;2023-01-31T00:49:57;103017.06;;;7.79;93.67
23261;BME280;11799;47.740;-3.390;2023-01-31T00:52:23;103032.00;;;7.79;93.52
23261;BME280;11799;47.740;-3.390;2023-01-31T00:54:48;103034.63;;;7.79;93.40
23261;BME280;11799;47.740;-3.390;2023-01-31T00:57:14;103032.03;;;7.77;93.45
23261;BME280;11799;47.740;-3.390;2023-01-31T00:59:39;103038.16;;;7.78;93.79
23261;BME280;11799;47.740;-3.390;2023-01-31T01:02:05;103025.97;;;7.75;93.72
23261;BME280;11799;47.740;-3.390;2023-01-31T01:04:30;103024.28;;;7.73;93.04
23261;BME280;11799;47.740;-3.390;2023-01-31T01:06:57;103017.34;;;7.70;93.52
23261;BME280;11799;47.740;-3.390;2023-01-31T01:09:23;103026.91;;;7.73;93.18
23261;BME280;11799;47.740;-3.390;2023-01-31T01:11:50;103019.94;;;7.72;93.28
23261;BME280;11799;47.740;-3.390;2023-01-31T01:14:16;103020.03;;;7.69;93.59
23261;BME280;11799;47.740;-3.390;2023-01-31T01:16:42;103019.13;;;7.70;93.52
23261;BME280;11799;47.740;-3.390;2023-01-31T01:19:14;103020.03;;;7.69;93.30
23261;BME280;11799;47.740;-3.390;2023-01-31T01:21:40;103020.06;;;7.67;93.33
23261;BME280;11799;47.740;-3.390;2023-01-31T01:24:12;103019.16;;;7.68;92.64
23261;BME280;11799;47.740;-3.390;2023-01-31T01:26:38;103011.31;;;7.67;93.48
23261;BME280;11799;47.740;-3.390;2023-01-31T01:29:03;103013.94;;;7.67;93.13
23261;BME280;11799;47.740;-3.390;2023-01-31T01:31:30;103016.63;;;7.65;92.42
23261;BME280;11799;47.740;-3.390;2023-01-31T01:33:57;103019.31;;;7.63;92.48
23261;BME280;11799;47.740;-3.390;2023-01-31T01:36:24;103028.09;;;7.62;92.84
23261;BME280;11799;47.740;-3.390;2023-01-31T01:38:50;103014.94;;;7.62;92.40
23261;BME280;11799;47.740;-3.390;2023-01-31T01:41:16;103021.16;;;7.60;91.71
23261;BME280;11799;47.740;-3.390;2023-01-31T01:44:02;103012.47;;;7.58;92.15
23261;BME280;11799;47.740;-3.390;2023-01-31T01:46:42;103015.19;;;7.55;91.64
23261;BME280;11799;47.740;-3.390;2023-01-31T01:51:40;103006.47;;;7.53;90.26
23261;BME280;11799;47.740;-3.390;2023-01-31T01:54:12;103007.50;;;7.49;90.30
23261;BME280;11799;47.740;-3.390;2023-01-31T01:56:42;103014.53;;;7.48;89.75
23261;BME280;11799;47.740;-3.390;2023-01-31T01:59:15;103011.03;;;7.48;89.39
23261;BME280;11799;47.740;-3.390;2023-01-31T02:01:45;103014.72;;;7.42;89.43
23261;BME280;11799;47.740;-3.390;2023-01-31T02:04:15;103013.00;;;7.41;88.59
23261;BME280;11799;47.740;-3.390;2023-01-31T02:06:43;103013.94;;;7.39;87.83
23261;BME280;11799;47.740;-3.390;2023-01-31T02:09:18;103023.59;;;7.38;88.36
23261;BME280;11799;47.740;-3.390;2023-01-31T02:11:45;103018.22;;;7.43;88.29
23261;BME280;11799;47.740;-3.390;2023-01-31T02:14:11;103011.31;;;7.39;88.33
23261;BME280;11799;47.740;-3.390;2023-01-31T02:16:37;103017.53;;;7.36;88.28
23261;BME280;11799;47.740;-3.390;2023-01-31T02:19:09;103007.97;;;7.34;88.19
23261;BME280;11799;47.740;-3.390;2023-01-31T02:22:03;103005.41;;;7.31;88.36
23261;BME280;11799;47.740;-3.390;2023-01-31T02:33:25;103003.09;;;7.20;88.34
23261;BME280;11799;47.740;-3.390;2023-01-31T02:36:23;103004.00;;;7.19;88.92
23261;BME280;11799;47.740;-3.390;2023-01-31T02:45:03;103012.09;;;7.11;88.58
23261;BME280;11799;47.740;-3.390;2023-01-31T02:50:44;103003.38;;;7.11;88.63
23261;BME280;11799;47.740;-3.390;2023-01-31T02:53:44;103009.47;;;7.11;89.01
23261;BME280;11799;47.740;-3.390;2023-01-31T02:56:24;103008.72;;;7.08;88.94
23261;BME280;11799;47.740;-3.390;2023-01-31T02:58:58;103006.91;;;7.10;89.56
23261;BME280;11799;47.740;-3.390;2023-01-31T03:01:35;103014.78;;;7.10;88.86
23261;BME280;11799;47.740;-3.390;2023-01-31T03:04:05;103006.00;;;7.11;89.32
23261;BME280;11799;47.740;-3.390;2023-01-31T03:09:07;103010.44;;;7.09;88.76
23261;BME280;11799;47.740;-3.390;2023-01-31T03:11:39;102997.28;;;7.09;88.99
23261;BME280;11799;47.740;-3.390;2023-01-31T03:16:58;103000.97;;;7.03;89.38
23261;BME280;11799;47.740;-3.390;2023-01-31T03:22:44;103001.84;;;7.02;88.86
23261;BME280;11799;47.740;-3.390;2023-01-31T03:25:14;103012.31;;;7.04;88.96
23261;BME280;11799;47.740;-3.390;2023-01-31T03:27:46;103006.28;;;7.00;89.20
23261;BME280;11799;47.740;-3.390;2023-01-31T03:30:19;103005.47;;;6.98;89.06
23261;BME280;11799;47.740;-3.390;2023-01-31T03:32:54;103002.00;;;6.97;89.03
23261;BME280;11799;47.740;-3.390;2023-01-31T03:35:24;103002.75;;;7.01;89.44
23261;BME280;11799;47.740;-3.390;2023-01-31T03:38:20;102997.63;;;6.96;89.05
23261;BME280;11799;47.740;-3.390;2023-01-31T03:40:56;103004.78;;;6.93;89.08
23261;BME280;11799;47.740;-3.390;2023-01-31T03:43:33;103011.72;;;6.94;89.56
23261;BME280;11799;47.740;-3.390;2023-01-31T03:49:28;102997.88;;;6.89;89.37
23261;BME280;11799;47.740;-3.390;2023-01-31T03:52:17;103007.41;;;6.93;89.47
23261;BME280;11799;47.740;-3.390;2023-01-31T03:54:57;103008.31;;;6.92;89.84
23261;BME280;11799;47.740;-3.390;2023-01-31T03:57:28;103012.72;;;6.90;89.25
23261;BME280;11799;47.740;-3.390;2023-01-31T03:59:58;103018.00;;;6.90;89.64
23261;BME280;11799;47.740;-3.390;2023-01-31T04:02:36;103008.31;;;6.92;89.13
23261;BME280;11799;47.740;-3.390;2023-01-31T04:05:16;103016.25;;;6.89;89.35
23261;BME280;11799;47.740;-3.390;2023-01-31T04:07:44;103011.88;;;6.89;89.22
23261;BME280;11799;47.740;-3.390;2023-01-31T04:10:18;103016.22;;;6.90;89.58
23261;BME280;11799;47.740;-3.390;2023-01-31T04:12:45;103013.63;;;6.89;89.40
23261;BME280;11799;47.740;-3.390;2023-01-31T04:15:11;103011.00;;;6.89;89.55
23261;BME280;11799;47.740;-3.390;2023-01-31T04:17:37;103011.91;;;6.88;89.71
23261;BME280;11799;47.740;-3.390;2023-01-31T04:20:05;103015.41;;;6.88;89.43
23261;BME280;11799;47.740;-3.390;2023-01-31T04:22:31;103018.94;;;6.87;89.47
23261;BME280;11799;47.740;-3.390;2023-01-31T04:24:57;103025.03;;;6.88;89.79
23261;BME280;11799;47.740;-3.390;2023-01-31T04:27:23;103018.94;;;6.87;89.61
23261;BME280;11799;47.740;-3.390;2023-01-31T04:29:48;103022.47;;;6.86;90.03
23261;BME280;11799;47.740;-3.390;2023-01-31T04:32:14;103015.41;;;6.88;89.94
23261;BME280;11799;47.740;-3.390;2023-01-31T04:34:39;103016.25;;;6.89;90.25
23261;BME280;11799;47.740;-3.390;2023-01-31T04:37:05;103013.72;;;6.86;89.69
23261;BME280;11799;47.740;-3.390;2023-01-31T04:39:31;103014.53;;;6.88;90.34
23261;BME280;11799;47.740;-3.390;2023-01-31T04:41:56;103001.50;;;6.85;90.62
23261;BME280;11799;47.740;-3.390;2023-01-31T04:44:22;102999.03;;;6.79;89.64
23261;BME280;11799;47.740;-3.390;2023-01-31T04:46:47;103008.59;;;6.81;89.32
23261;BME280;11799;47.740;-3.390;2023-01-31T04:49:13;102995.41;;;6.83;89.41
23261;BME280;11799;47.740;-3.390;2023-01-31T04:51:39;102998.09;;;6.81;90.00
23261;BME280;11799;47.740;-3.390;2023-01-31T04:54:05;102995.38;;;6.84;90.29
23261;BME280;11799;47.740;-3.390;2023-01-31T04:56:31;102997.09;;;6.85;89.47
23261;BME280;11799;47.740;-3.390;2023-01-31T04:58:57;102998.03;;;6.83;90.21
23261;BME280;11799;47.740;-3.390;2023-01-31T05:01:23;103004.31;;;6.77;89.32
23261;BME280;11799;47.740;-3.390;2023-01-31T05:03:49;102998.13;;;6.80;88.88
23261;BME280;11799;47.740;-3.390;2023-01-31T05:06:14;103001.53;;;6.83;89.59
23261;BME280;11799;47.740;-3.390;2023-01-31T05:08:40;103004.13;;;6.85;88.86
23261;BME280;11799;47.740;-3.390;2023-01-31T05:11:06;103004.06;;;6.86;89.06
23261;BME280;11799;47.740;-3.390;2023-01-31T05:13:33;103011.09;;;6.86;89.76
23261;BME280;11799;47.740;-3.390;2023-01-31T05:16:08;103000.53;;;6.87;89.52
23261;BME280;11799;47.740;-3.390;2023-01-31T05:18:35;103000.63;;;6.84;89.29
23261;BME280;11799;47.740;-3.390;2023-01-31T05:21:02;102998.03;;;6.83;89.02
23261;BME280;11799;47.740;-3.390;2023-01-31T05:23:28;102990.22;;;6.81;89.64
23261;BME280;11799;47.740;-3.390;2023-01-31T05:25:54;102984.91;;;6.83;89.80
23261;BME280;11799;47.740;-3.390;2023-01-31T05:28:20;102980.53;;;6.83;89.25
23261;BME280;11799;47.740;-3.390;2023-01-31T05:30:46;102977.94;;;6.82;89.35
23261;BME280;11799;47.740;-3.390;2023-01-31T05:33:12;102975.34;;;6.80;89.49
23261;BME280;11799;47.740;-3.390;2023-01-31T05:35:37;102981.47;;;6.81;89.68
23261;BME280;11799;47.740;-3.390;2023-01-31T05:38:04;102978.94;;;6.78;90.24
23261;BME280;11799;47.740;-3.390;2023-01-31T05:40:29;102971.94;;;6.77;90.01
23261;BME280;11799;47.740;-3.390;2023-01-31T05:42:57;102979.72;;;6.81;89.89
23261;BME280;11799;47.740;-3.390;2023-01-31T05:45:25;102978.09;;;6.76;90.43
23261;BME280;11799;47.740;-3.390;2023-01-31T05:47:50;102983.34;;;6.76;90.22
23261;BME280;11799;47.740;-3.390;2023-01-31T05:50:16;102978.16;;;6.74;90.66
23261;BME280;11799;47.740;-3.390;2023-01-31T05:52:42;102971.13;;;6.75;90.31
23261;BME280;11799;47.740;-3.390;2023-01-31T05:55:08;102978.16;;;6.74;90.14
23261;BME280;11799;47.740;-3.390;2023-01-31T05:57:34;102974.66;;;6.74;90.82
23261;BME280;11799;47.740;-3.390;2023-01-31T05:59:59;102975.56;;;6.73;90.40
23261;BME280;11799;47.740;-3.390;2023-01-31T06:02:25;102979.91;;;6.74;90.33
23261;BME280;11799;47.740;-3.390;2023-01-31T06:04:51;102979.91;;;6.74;91.02
23261;BME280;11799;47.740;-3.390;2023-01-31T06:07:16;102977.34;;;6.72;91.33
23261;BME280;11799;47.740;-3.390;2023-01-31T06:09:42;102982.56;;;6.72;91.43
23261;BME280;11799;47.740;-3.390;2023-01-31T06:12:13;102978.22;;;6.71;90.79
23261;BME280;11799;47.740;-3.390;2023-01-31T06:14:39;102980.81;;;6.73;91.53
23261;BME280;11799;47.740;-3.390;2023-01-31T06:17:05;102985.25;;;6.71;91.42
23261;BME280;11799;47.740;-3.390;2023-01-31T06:19:31;102985.25;;;6.71;91.24
23261;BME280;11799;47.740;-3.390;2023-01-31T06:21:56;102990.63;;;6.66;91.02
23261;BME280;11799;47.740;-3.390;2023-01-31T06:24:22;102990.53;;;6.69;90.77
23261;BME280;11799;47.740;-3.390;2023-01-31T06:26:47;102998.38;;;6.71;90.76
23261;BME280;11799;47.740;-3.390;2023-01-31T06:29:13;102993.22;;;6.68;91.64
23261;BME280;11799;47.740;-3.390;2023-01-31T06:31:42;102999.28;;;6.70;91.28
23261;BME280;11799;47.740;-3.390;2023-01-31T06:34:08;103008.09;;;6.67;91.42
23261;BME280;11799;47.740;-3.390;2023-01-31T06:36:33;103001.13;;;6.66;91.72
23261;BME280;11799;47.740;-3.390;2023-01-31T06:38:59;103007.22;;;6.67;91.58
23261;BME280;11799;47.740;-3.390;2023-01-31T06:41:24;103004.63;;;6.67;91.15
23261;BME280;11799;47.740;-3.390;2023-01-31T06:43:50;103001.09;;;6.68;91.58
23261;BME280;11799;47.740;-3.390;2023-01-31T06:46:16;103008.09;;;6.67;91.47
23261;BME280;11799;47.740;-3.390;2023-01-31T06:48:42;103015.16;;;6.65;90.91
23261;BME280;11799;47.740;-3.390;2023-01-31T06:51:08;103005.50;;;6.66;91.17
23261;BME280;11799;47.740;-3.390;2023-01-31T06:53:34;103009.97;;;6.62;90.71
23261;BME280;11799;47.740;-3.390;2023-01-31T06:56:00;103004.72;;;6.62;91.10
23261;BME280;11799;47.740;-3.390;2023-01-31T06:58:26;103001.28;;;6.60;90.88
23261;BME280;11799;47.740;-3.390;2023-01-31T07:00:52;102996.06;;;6.58;90.29
23261;BME280;11799;47.740;-3.390;2023-01-31T07:03:18;102994.28;;;6.60;90.17
23261;BME280;11799;47.740;-3.390;2023-01-31T07:05:44;102996.13;;;6.57;90.44
23261;BME280;11799;47.740;-3.390;2023-01-31T07:08:10;102999.56;;;6.59;89.80
23261;BME280;11799;47.740;-3.390;2023-01-31T07:10:36;102991.75;;;6.56;89.84
23261;BME280;11799;47.740;-3.390;2023-01-31T07:13:02;103002.31;;;6.54;89.97
23261;BME280;11799;47.740;-3.390;2023-01-31T07:15:27;102995.28;;;6.55;90.29
23261;BME280;11799;47.740;-3.390;2023-01-31T07:17:58;103008.50;;;6.52;89.98
23261;BME280;11799;47.740;-3.390;2023-01-31T07:20:24;103013.00;;;6.47;89.72
23261;BME280;11799;47.740;-3.390;2023-01-31T07:22:53;103015.63;;;6.47;89.43
23261;BME280;11799;47.740;-3.390;2023-01-31T07:25:19;103019.34;;;6.38;89.08
23261;BME280;11799;47.740;-3.390;2023-01-31T07:27:45;103018.53;;;6.36;89.88
23261;BME280;11799;47.740;-3.390;2023-01-31T07:30:11;103021.16;;;6.36;89.74
23261;BME280;11799;47.740;-3.390;2023-01-31T07:32:37;103029.94;;;6.35;89.94
23261;BME280;11799;47.740;-3.390;2023-01-31T07:35:02;103037.97;;;6.29;89.51
23261;BME280;11799;47.740;-3.390;2023-01-31T07:37:28;103033.59;;;6.29;89.96
23261;BME280;11799;47.740;-3.390;2023-01-31T07:39:53;103035.50;;;6.23;89.64
23261;BME280;11799;47.740;-3.390;2023-01-31T07:42:19;103040.75;;;6.23;90.12
23261;BME280;11799;47.740;-3.390;2023-01-31T07:44:44;103051.50;;;6.12;90.15
23261;BME280;11799;47.740;-3.390;2023-01-31T07:47:10;103044.53;;;6.11;89.24
23261;BME280;11799;47.740;-3.390;2023-01-31T07:49:36;103047.34;;;6.02;89.03
23261;BME280;11799;47.740;-3.390;2023-01-31T07:52:01;103055.31;;;5.99;89.36
23261;BME280;11799;47.740;-3.390;2023-01-31T07:54:27;103056.19;;;5.98;89.77
23261;BME280;11799;47.740;-3.390;2023-01-31T07:56:52;103061.41;;;6.00;89.91
23261;BME280;11799;47.740;-3.390;2023-01-31T07:59:18;103060.66;;;5.94;90.29
23261;BME280;11799;47.740;-3.390;2023-01-31T08:01:44;103064.19;;;5.92;90.33
23261;BME280;11799;47.740;-3.390;2023-01-31T08:04:28;103058.13;;;5.88;90.07
23261;BME280;11799;47.740;-3.390;2023-01-31T08:06:54;103055.56;;;5.85;90.30
23261;BME280;11799;47.740;-3.390;2023-01-31T08:09:21;103058.25;;;5.82;89.67
23261;BME280;11799;47.740;-3.390;2023-01-31T08:11:46;103074.84;;;5.83;89.46
23261;BME280;11799;47.740;-3.390;2023-01-31T08:14:12;103066.22;;;5.78;90.29
23261;BME280;11799;47.740;-3.390;2023-01-31T08:16:37;103075.81;;;5.79;89.88
23261;BME280;11799;47.740;-3.390;2023-01-31T08:19:04;103079.41;;;5.76;90.37
23261;BME280;11799;47.740;-3.390;2023-01-31T08:21:30;103090.63;;;5.81;90.08
23261;BME280;11799;47.740;-3.390;2023-01-31T08:23:56;103088.91;;;5.80;90.47
23261;BME280;11799;47.740;-3.390;2023-01-31T08:26:21;103084.34;;;5.88;90.63
23261;BME280;11799;47.740;-3.390;2023-01-31T08:28:49;103090.50;;;5.89;91.10
23261;BME280;11799;47.740;-3.390;2023-01-31T08:31:21;103091.19;;;5.97;91.42
23261;BME280;11799;47.740;-3.390;2023-01-31T08:33:47;103094.53;;;6.04;91.50
23261;BME280;11799;47.740;-3.390;2023-01-31T08:36:20;103093.50;;;6.11;91.71
23261;BME280;11799;47.740;-3.390;2023-01-31T08:38:47;103096.91;;;6.14;92.14
23261;BME280;11799;47.740;-3.390;2023-01-31T08:41:15;103102.00;;;6.22;91.63
23261;BME280;11799;47.740;-3.390;2023-01-31T08:43:42;103101.00;;;6.27;91.64
23261;BME280;11799;47.740;-3.390;2023-01-31T08:46:08;103093.91;;;6.31;91.31
23261;BME280;11799;47.740;-3.390;2023-01-31T08:48:35;103101.72;;;6.34;91.31
23261;BME280;11799;47.740;-3.390;2023-01-31T08:51:06;103093.69;;;6.39;91.65
23261;BME280;11799;47.740;-3.390;2023-01-31T08:53:33;103101.47;;;6.43;91.05
23261;BME280;11799;47.740;-3.390;2023-01-31T08:55:59;103100.47;;;6.47;90.09
23261;BME280;11799;47.740;-3.390;2023-01-31T08:58:25;103114.38;;;6.52;89.83
23261;BME280;11799;47.740;-3.390;2023-01-31T09:00:51;103108.13;;;6.56;90.20
23261;BME280;11799;47.740;-3.390;2023-01-31T09:03:17;103109.81;;;6.59;89.63
23261;BME280;11799;47.740;-3.390;2023-01-31T09:05:42;103107.19;;;6.59;89.64
23261;BME280;11799;47.740;-3.390;2023-01-31T09:08:08;103111.47;;;6.63;89.35
23261;BME280;11799;47.740;-3.390;2023-01-31T09:10:34;103097.50;;;6.62;89.17
23261;BME280;11799;47.740;-3.390;2023-01-31T09:12:59;103104.22;;;6.73;89.38
23261;BME280;11799;47.740;-3.390;2023-01-31T09:15:25;103109.22;;;6.83;89.39
23261;BME280;11799;47.740;-3.390;2023-01-31T09:17:51;103109.78;;;6.94;89.54
23261;BME280;11799;47.740;-3.390;2023-01-31T09:20:17;103109.69;;;6.97;89.73
23261;BME280;11799;47.740;-3.390;2023-01-31T09:22:42;103105.06;;;7.07;89.03
23261;BME280;11799;47.740;-3.390;2023-01-31T09:25:08;103102.31;;;7.12;89.08
23261;BME280;11799;47.740;-3.390;2023-01-31T09:27:35;103108.34;;;7.15;88.07
23261;BME280;11799;47.740;-3.390;2023-01-31T09:30:06;103100.25;;;7.23;87.49
23261;BME280;11799;47.740;-3.390;2023-01-31T09:32:32;103104.44;;;7.30;87.00
23261;BME280;11799;47.740;-3.390;2023-01-31T09:34:58;103099.88;;;7.37;86.84
23261;BME280;11799;47.740;-3.390;2023-01-31T09:37:23;103104.88;;;7.46;86.71
23261;BME280;11799;47.740;-3.390;2023-01-31T09:39:49;103108.97;;;7.54;86.44
23261;BME280;11799;47.740;-3.390;2023-01-31T09:44:48;103107.69;;;7.69;86.98
23261;BME280;11799;47.740;-3.390;2023-01-31T09:47:32;103116.22;;;7.77;86.91
23261;BME280;11799;47.740;-3.390;2023-01-31T09:50:06;103108.09;;;7.85;85.99
23261;BME280;11799;47.740;-3.390;2023-01-31T09:52:37;103114.94;;;7.90;85.22
23261;BME280;11799;47.740;-3.390;2023-01-31T09:55:04;103116.53;;;7.96;85.01
23261;BME280;11799;47.740;-3.390;2023-01-31T10:00:31;103123.06;;;8.11;84.08
23261;BME280;11799;47.740;-3.390;2023-01-31T10:06:14;103125.06;;;8.31;84.08
23261;BME280;11799;47.740;-3.390;2023-01-31T10:11:20;103131.63;;;8.47;84.64
23261;BME280;11799;47.740;-3.390;2023-01-31T10:13:52;103133.94;;;8.56;84.05
23261;BME280;11799;47.740;-3.390;2023-01-31T10:16:55;103136.22;;;8.67;82.21
23261;BME280;11799;47.740;-3.390;2023-01-31T10:19:32;103142.84;;;8.78;82.46
23261;BME280;11799;47.740;-3.390;2023-01-31T10:22:04;103139.16;;;8.84;82.66
23261;BME280;11799;47.740;-3.390;2023-01-31T10:24:36;103133.63;;;8.91;82.53
23261;BME280;11799;47.740;-3.390;2023-01-31T10:27:11;103134.31;;;8.97;82.75
23261;BME280;11799;47.740;-3.390;2023-01-31T10:29:43;103130.63;;;9.02;82.55
23261;BME280;11799;47.740;-3.390;2023-01-31T10:34:56;103136.38;;;9.13;82.94
23261;BME280;11799;47.740;-3.390;2023-01-31T10:37:26;103133.59;;;9.18;82.44
23261;BME280;11799;47.740;-3.390;2023-01-31T10:40:02;103138.66;;;9.24;82.58
23261;BME280;11799;47.740;-3.390;2023-01-31T10:42:35;103144.69;;;9.26;81.73
23261;BME280;11799;47.740;-3.390;2023-01-31T10:47:35;103151.47;;;9.33;81.21
23261;BME280;11799;47.740;-3.390;2023-01-31T10:50:10;103149.59;;;9.37;82.14
23261;BME280;11799;47.740;-3.390;2023-01-31T10:55:27;103155.22;;;9.51;80.46
23261;BME280;11799;47.740;-3.390;2023-01-31T10:57:56;103158.72;;;9.51;81.19
23261;BME280;11799;47.740;-3.390;2023-01-31T11:00:26;103165.63;;;9.55;81.93
23261;BME280;11799;47.740;-3.390;2023-01-31T11:02:53;103158.50;;;9.57;80.41
23261;BME280;11799;47.740;-3.390;2023-01-31T11:05:21;103160.13;;;9.62;81.00
23261;BME280;11799;47.740;-3.390;2023-01-31T11:07:47;103157.38;;;9.65;81.15
23261;BME280;11799;47.740;-3.390;2023-01-31T11:10:25;103158.06;;;9.70;82.31
23261;BME280;11799;47.740;-3.390;2023-01-31T11:13:00;103163.88;;;9.79;81.27
23261;BME280;11799;47.740;-3.390;2023-01-31T11:15:36;103157.53;;;9.83;80.07
23261;BME280;11799;47.740;-3.390;2023-01-31T11:18:04;103151.22;;;9.87;79.53
23261;BME280;11799;47.740;-3.390;2023-01-31T11:20:43;103156.44;;;9.89;79.03
23261;BME280;11799;47.740;-3.390;2023-01-31T11:23:11;103153.72;;;9.90;79.31
23261;BME280;11799;47.740;-3.390;2023-01-31T11:25:38;103148.41;;;9.92;78.28
23261;BME280;11799;47.740;-3.390;2023-01-31T11:28:17;103151.97;;;9.91;78.06
23261;BME280;11799;47.740;-3.390;2023-01-31T11:30:47;103143.97;;;9.92;78.27
23261;BME280;11799;47.740;-3.390;2023-01-31T11:36:07;103145.06;;;10.10;78.46
23261;BME280;11799;47.740;-3.390;2023-01-31T11:38:33;103136.09;;;10.14;78.20
23261;BME280;11799;47.740;-3.390;2023-01-31T11:40:58;103124.47;;;10.20;78.48
23261;BME280;11799;47.740;-3.390;2023-01-31T11:43:28;103127.78;;;10.25;78.09
23261;BME280;11799;47.740;-3.390;2023-01-31T11:46:01;103130.13;;;10.33;79.67
23261;BME280;11799;47.740;-3.390;2023-01-31T11:51:03;103120.94;;;10.41;77.90
23261;BME280;11799;47.740;-3.390;2023-01-31T11:53:46;103112.03;;;10.44;78.67
23261;BME280;11799;47.740;-3.390;2023-01-31T11:56:15;103110.94;;;10.49;79.07
23261;BME280;11799;47.740;-3.390;2023-01-31T11:58:42;103109.22;;;10.48;77.68
23261;BME280;11799;47.740;-3.390;2023-01-31T12:01:16;103107.31;;;10.52;76.84
23261;BME280;11799;47.740;-3.390;2023-01-31T12:04:00;103104.59;;;10.53;78.09
23261;BME280;11799;47.740;-3.390;2023-01-31T12:06:34;103097.41;;;10.57;78.12
23261;BME280;11799;47.740;-3.390;2023-01-31T12:09:01;103099.06;;;10.59;76.74
23261;BME280;11799;47.740;-3.390;2023-01-31T12:11:32;103099.91;;;10.60;75.36
23261;BME280;11799;47.740;-3.390;2023-01-31T12:14:08;103099.06;;;10.59;74.65
23261;BME280;11799;47.740;-3.390;2023-01-31T12:16:37;103092.78;;;10.62;74.90
23261;BME280;11799;47.740;-3.390;2023-01-31T12:24:18;103085.53;;;10.67;76.00
23261;BME280;11799;47.740;-3.390;2023-01-31T12:26:55;103082.09;;;10.65;74.10
23261;BME280;11799;47.740;-3.390;2023-01-31T12:30:06;103083.69;;;10.69;76.15
23261;BME280;11799;47.740;-3.390;2023-01-31T12:35:11;103074.69;;;10.73;77.81
23261;BME280;11799;47.740;-3.390;2023-01-31T12:40:36;103066.84;;;10.72;77.80
23261;BME280;11799;47.740;-3.390;2023-01-31T12:45:53;103063.28;;;10.73;77.90
23261;BME280;11799;47.740;-3.390;2023-01-31T12:51:31;103050.91;;;10.73;78.03
23261;BME280;11799;47.740;-3.390;2023-01-31T12:54:11;103050.00;;;10.74;78.55
23261;BME280;11799;47.740;-3.390;2023-01-31T12:57:00;103054.47;;;10.72;78.81
23261;BME280;11799;47.740;-3.390;2023-01-31T13:02:34;103048.47;;;10.69;76.61
23261;BME280;11799;47.740;-3.390;2023-01-31T13:07:52;103040.72;;;10.64;75.58
23261;BME280;11799;47.740;-3.390;2023-01-31T13:10:31;103039.88;;;10.64;76.57
23261;BME280;11799;47.740;-3.390;2023-01-31T13:12:59;103039.94;;;10.62;76.92
23261;BME280;11799;47.740;-3.390;2023-01-31T13:15:48;103040.06;;;10.59;77.26
23261;BME280;11799;47.740;-3.390;2023-01-31T13:18:16;103038.28;;;10.59;77.57
23261;BME280;11799;47.740;-3.390;2023-01-31T13:20:55;103035.78;;;10.56;77.12
23261;BME280;11799;47.740;-3.390;2023-01-31T13:23:28;103034.06;;;10.55;76.28
23261;BME280;11799;47.740;-3.390;2023-01-31T13:26:06;103028.78;;;10.55;77.64
23261;BME280;11799;47.740;-3.390;2023-01-31T13:28:46;103028.78;;;10.55;77.97
23261;BME280;11799;47.740;-3.390;2023-01-31T13:31:23;103020.00;;;10.55;77.04
23261;BME280;11799;47.740;-3.390;2023-01-31T13:33:55;103023.56;;;10.54;77.06
23261;BME280;11799;47.740;-3.390;2023-01-31T13:36:46;103021.84;;;10.53;76.77
23261;BME280;11799;47.740;-3.390;2023-01-31T13:39:22;103023.56;;;10.54;78.19
23261;BME280;11799;47.740;-3.390;2023-01-31T13:41:48;103022.69;;;10.53;77.59
23261;BME280;11799;47.740;-3.390;2023-01-31T13:44:14;103020.97;;;10.52;78.36
23261;BME280;11799;47.740;-3.390;2023-01-31T13:46:44;103017.53;;;10.50;78.27
23261;BME280;11799;47.740;-3.390;2023-01-31T13:51:51;103007.97;;;10.48;77.40
23261;BME280;11799;47.740;-3.390;2023-01-31T13:54:24;103014.22;;;10.45;77.23
23261;BME280;11799;47.740;-3.390;2023-01-31T13:56:56;103001.88;;;10.46;77.98
23261;BME280;11799;47.740;-3.390;2023-01-31T13:59:25;103005.44;;;10.45;78.39
23261;BME280;11799;47.740;-3.390;2023-01-31T14:01:53;103003.78;;;10.42;78.94
23261;BME280;11799;47.740;-3.390;2023-01-31T14:04:23;103001.22;;;10.41;78.30
23261;BME280;11799;47.740;-3.390;2023-01-31T14:09:44;102994.31;;;10.38;78.78
23261;BME280;11799;47.740;-3.390;2023-01-31T14:14:55;102991.69;;;10.38;79.37
23261;BME280;11799;47.740;-3.390;2023-01-31T14:25:11;102975.91;;;10.37;79.92
23261;BME280;11799;47.740;-3.390;2023-01-31T14:30:22;102972.47;;;10.35;80.52
23261;BME280;11799;47.740;-3.390;2023-01-31T14:35:52;102972.59;;;10.32;79.93
23261;BME280;11799;47.740;-3.390;2023-01-31T14:38:38;102974.31;;;10.33;79.63
23261;BME280;11799;47.740;-3.390;2023-01-31T14:55:02;102964.53;;;10.35;80.18
23261;BME280;11799;47.740;-3.390;2023-01-31T14:57:40;102958.25;;;10.37;80.72